createdAt,value
2019-05-10T00:00:46.837Z,4.58
2019-05-10T00:03:33.690Z,9.60
2019-05-10T00:06:20.311Z,5.05
2019-05-10T00:08:48.691Z,5.53
2019-05-10T00:11:39.357Z,5.20
2019-05-10T00:14:44.418Z,5.07
2019-05-10T00:17:23.844Z,5.12
2019-05-10T00:19:53.138Z,5.30
2019-05-10T00:22:23.162Z,5.80
2019-05-10T00:25:02.973Z,5.70
2019-05-10T00:27:23.371Z,5.43
2019-05-10T00:29:52.689Z,5.17
2019-05-10T00:32:21.915Z,5.33
2019-05-10T00:34:51.250Z,5.08
2019-05-10T00:37:20.612Z,5.40
2019-05-10T00:39:50.117Z,5.62
2019-05-10T00:42:19.387Z,5.65
2019-05-10T00:44:48.554Z,5.40
2019-05-10T00:47:17.789Z,5.40
2019-05-10T00:49:46.979Z,5.28
2019-05-10T00:52:16.125Z,5.55
2019-05-10T00:54:45.362Z,5.70
2019-05-10T00:57:14.899Z,5.70
2019-05-10T00:59:44.119Z,5.72
2019-05-10T01:02:13.272Z,5.30
2019-05-10T01:04:42.262Z,5.50
2019-05-10T01:07:11.327Z,5.37
2019-05-10T01:09:40.426Z,5.20
2019-05-10T01:12:09.581Z,5.30
2019-05-10T01:14:38.656Z,5.47
2019-05-10T01:17:07.709Z,5.10
2019-05-10T01:19:36.777Z,5.67
2019-05-10T01:22:05.877Z,5.37
2019-05-10T01:24:34.924Z,7.03
2019-05-10T01:27:04.057Z,5.15
2019-05-10T01:29:33.129Z,5.17
2019-05-10T01:32:02.393Z,5.15
2019-05-10T01:34:31.485Z,5.17
2019-05-10T01:37:00.633Z,5.57
2019-05-10T01:39:29.963Z,5.33
2019-05-10T01:41:59.117Z,5.40
2019-05-10T01:44:28.201Z,5.70
2019-05-10T01:46:57.565Z,5.13
2019-05-10T01:49:26.643Z,4.90
2019-05-10T01:51:55.718Z,5.35
2019-05-10T01:54:25.106Z,5.00
2019-05-10T01:56:54.169Z,4.85
2019-05-10T01:59:23.214Z,5.28
2019-05-10T02:01:52.371Z,5.00
2019-05-10T02:04:21.495Z,4.80
2019-05-10T02:06:50.730Z,5.00
2019-05-10T02:09:19.781Z,5.40
2019-05-10T02:11:48.927Z,5.20
2019-05-10T02:14:18.019Z,4.40
2019-05-10T02:16:47.034Z,4.53
2019-05-10T02:19:16.102Z,4.58
2019-05-10T02:21:45.224Z,4.67
2019-05-10T02:24:14.291Z,5.12
2019-05-10T02:26:43.354Z,5.47
2019-05-10T02:29:12.415Z,5.00
2019-05-10T02:31:41.593Z,5.08
2019-05-10T02:34:10.681Z,4.65
2019-05-10T02:36:39.872Z,4.70
2019-05-10T02:39:09.520Z,4.55
2019-05-10T02:41:38.630Z,4.28
2019-05-10T02:44:07.870Z,3.98
2019-05-10T02:46:40.361Z,4.00
2019-05-10T02:49:09.444Z,3.92
2019-05-10T02:51:38.579Z,4.00
2019-05-10T02:54:07.654Z,3.70
2019-05-10T02:56:37.624Z,4.08
2019-05-10T02:59:07.495Z,4.12
2019-05-10T03:01:43.893Z,3.70
2019-05-10T03:04:14.388Z,3.60
2019-05-10T03:06:44.729Z,3.77
2019-05-10T03:09:13.892Z,3.90
2019-05-10T03:11:47.768Z,3.92
2019-05-10T03:14:18.705Z,3.60
2019-05-10T03:16:55.568Z,3.72
2019-05-10T03:19:24.858Z,4.10
2019-05-10T03:22:04.758Z,3.92
2019-05-10T03:24:33.869Z,3.90
2019-05-10T03:27:03.080Z,3.92
2019-05-10T03:29:32.182Z,4.50
2019-05-10T03:32:04.561Z,3.90
2019-05-10T03:34:33.664Z,4.22
2019-05-10T03:37:03.078Z,20.55
2019-05-10T03:39:32.466Z,7.63
2019-05-10T03:42:01.497Z,6.00
2019-05-10T03:44:30.604Z,6.05
2019-05-10T03:46:59.854Z,5.75
2019-05-10T03:49:28.918Z,5.80
2019-05-10T03:51:57.969Z,5.73
2019-05-10T03:54:27.194Z,5.70
2019-05-10T03:57:12.003Z,6.22
2019-05-10T03:59:27.526Z,6.30
2019-05-10T04:01:56.682Z,5.78
2019-05-10T04:04:25.847Z,5.17
2019-05-10T04:06:55.024Z,5.03
2019-05-10T04:09:24.202Z,4.20
2019-05-10T04:11:53.334Z,4.40
2019-05-10T04:14:22.472Z,4.40
2019-05-10T04:16:51.539Z,4.17
2019-05-10T04:19:20.571Z,4.20
2019-05-10T04:21:49.639Z,4.15
2019-05-10T04:24:18.738Z,4.17
2019-05-10T04:26:47.789Z,4.15
2019-05-10T04:29:16.943Z,4.35
2019-05-10T04:31:46.289Z,3.80
2019-05-10T04:34:15.318Z,4.17
2019-05-10T04:36:44.399Z,4.17
2019-05-10T04:39:13.726Z,4.28
2019-05-10T04:41:43.078Z,4.47
2019-05-10T04:44:12.214Z,4.50
2019-05-10T04:46:41.332Z,4.92
2019-05-10T04:49:10.426Z,4.80
2019-05-10T04:51:39.676Z,4.28
2019-05-10T04:54:08.758Z,4.37
2019-05-10T04:56:37.836Z,5.20
2019-05-10T04:59:06.943Z,4.70
2019-05-10T05:01:35.923Z,4.70
2019-05-10T05:04:04.961Z,5.08
2019-05-10T05:06:34.054Z,4.60
2019-05-10T05:09:04.913Z,5.25
2019-05-10T05:11:33.998Z,5.28
2019-05-10T05:14:03.222Z,5.10
2019-05-10T05:16:32.301Z,5.50
2019-05-10T05:19:04.436Z,5.97
2019-05-10T05:21:33.554Z,6.00
2019-05-10T05:24:02.680Z,7.42
2019-05-10T05:26:32.032Z,6.80
2019-05-10T05:29:01.111Z,6.90
2019-05-10T05:31:30.249Z,7.00
2019-05-10T05:34:05.036Z,7.20
2019-05-10T05:36:30.239Z,6.42
2019-05-10T05:38:59.329Z,6.72
2019-05-10T05:41:31.688Z,7.12
2019-05-10T05:43:59.251Z,5.20
2019-05-10T05:46:28.749Z,5.60
2019-05-10T05:48:57.846Z,5.80
2019-05-10T05:51:27.091Z,5.23
2019-05-10T05:53:56.188Z,6.45
2019-05-10T05:56:25.330Z,5.65
2019-05-10T05:58:54.409Z,4.72
2019-05-10T06:01:28.826Z,4.58
2019-05-10T06:03:54.363Z,4.47
2019-05-10T06:06:23.762Z,4.20
2019-05-10T06:08:54.676Z,4.50
2019-05-10T06:11:23.898Z,4.28
2019-05-10T06:13:53.800Z,3.70
2019-05-10T06:16:22.930Z,3.90
2019-05-10T06:18:52.054Z,3.60
2019-05-10T06:21:24.939Z,3.33
2019-05-10T06:23:52.248Z,3.25
2019-05-10T06:26:28.197Z,3.00
2019-05-10T06:28:59.760Z,3.42
2019-05-10T06:31:23.158Z,3.00
2019-05-10T06:33:52.238Z,3.00
2019-05-10T06:36:21.388Z,3.20
2019-05-10T06:38:50.985Z,3.70
2019-05-10T06:41:20.199Z,3.27
2019-05-10T06:43:51.113Z,3.50
2019-05-10T06:46:23.760Z,4.23
2019-05-10T06:48:51.375Z,3.27
2019-05-10T06:51:20.490Z,3.47
2019-05-10T06:53:53.637Z,3.50
2019-05-10T06:56:20.576Z,3.67
2019-05-10T06:58:49.709Z,3.30
2019-05-10T07:01:18.817Z,3.50
2019-05-10T07:03:48.025Z,3.95
2019-05-10T07:06:17.111Z,3.35
2019-05-10T07:08:51.631Z,3.20
2019-05-10T07:11:17.555Z,3.70
2019-05-10T07:13:52.125Z,3.80
2019-05-10T07:16:24.256Z,4.58
2019-05-10T07:18:48.450Z,3.75
2019-05-10T07:21:17.728Z,3.58
2019-05-10T07:23:47.729Z,3.77
2019-05-10T07:26:23.096Z,4.08
2019-05-10T07:28:51.823Z,4.12
2019-05-10T07:31:23.299Z,4.47
2019-05-10T07:33:49.935Z,4.20
2019-05-10T07:36:20.833Z,4.62
2019-05-10T07:38:49.876Z,4.30
2019-05-10T07:41:19.672Z,4.50
2019-05-10T07:43:49.821Z,4.83
2019-05-10T07:46:18.905Z,5.95
2019-05-10T07:48:53.302Z,3.95
2019-05-10T07:51:22.900Z,3.80
2019-05-10T07:53:50.092Z,4.00
2019-05-10T07:56:19.169Z,3.90
2019-05-10T07:58:48.658Z,3.98
2019-05-10T08:01:29.450Z,3.33
2019-05-10T08:03:52.493Z,3.50
2019-05-10T08:06:19.705Z,5.00
2019-05-10T08:08:49.646Z,5.33
2019-05-10T08:11:19.143Z,5.75
2019-05-10T08:13:48.668Z,7.22
2019-05-10T08:16:22.734Z,6.87
2019-05-10T08:18:49.813Z,7.10
2019-05-10T08:21:23.869Z,7.87
2019-05-10T08:23:51.888Z,8.50
2019-05-10T08:26:24.566Z,9.33
2019-05-10T08:28:52.551Z,9.37
2019-05-10T08:31:23.097Z,8.65
2019-05-10T08:33:58.347Z,9.23
2019-05-10T08:36:23.564Z,9.48
2019-05-10T08:39:04.976Z,8.10
2019-05-10T08:41:24.098Z,8.83
2019-05-10T08:43:53.285Z,8.78
2019-05-10T08:46:28.612Z,9.15
2019-05-10T08:48:53.910Z,9.60
2019-05-10T08:51:23.260Z,9.48
2019-05-10T08:53:57.831Z,10.28
2019-05-10T08:56:24.134Z,10.10
2019-05-10T08:58:53.836Z,10.50
2019-05-10T09:01:29.964Z,10.98
2019-05-10T09:03:59.946Z,10.63
2019-05-10T09:06:24.813Z,10.90
2019-05-10T09:09:01.566Z,10.38
2019-05-10T09:11:25.213Z,10.70
2019-05-10T09:13:57.478Z,11.13
2019-05-10T09:16:29.168Z,10.70
2019-05-10T09:18:55.946Z,11.08
2019-05-10T09:21:25.262Z,11.18
2019-05-10T09:24:01.726Z,12.37
2019-05-10T09:26:25.662Z,12.05
2019-05-10T09:28:57.518Z,14.25
2019-05-10T09:31:25.989Z,12.95
2019-05-10T09:33:55.471Z,13.43
2019-05-10T09:36:31.024Z,12.85
2019-05-10T09:38:55.505Z,11.23
2019-05-10T09:41:27.823Z,11.30
2019-05-10T09:43:55.552Z,11.90
2019-05-10T09:46:24.610Z,11.65
2019-05-10T09:49:03.975Z,11.45
2019-05-10T09:51:28.673Z,10.83
2019-05-10T09:53:57.643Z,10.65
2019-05-10T09:56:27.617Z,9.68
2019-05-10T09:58:58.178Z,10.18
2019-05-10T10:01:28.150Z,10.43
2019-05-10T10:03:58.379Z,12.05
2019-05-10T10:06:29.793Z,11.55
2019-05-10T10:09:01.789Z,12.10
2019-05-10T10:11:30.846Z,12.00
2019-05-10T10:14:02.175Z,11.60
2019-05-10T10:16:30.858Z,11.57
2019-05-10T10:18:59.955Z,11.70
2019-05-10T10:21:35.161Z,12.37
2019-05-10T10:24:00.336Z,12.00
2019-05-10T10:26:29.698Z,13.00
2019-05-10T10:29:00.159Z,12.30
2019-05-10T10:31:33.398Z,12.78
2019-05-10T10:34:03.192Z,12.35
2019-05-10T10:36:31.778Z,12.45
2019-05-10T10:39:00.918Z,12.63
2019-05-10T10:41:31.848Z,12.55
2019-05-10T10:44:01.025Z,13.75
2019-05-10T10:46:30.085Z,14.98
2019-05-10T10:48:59.183Z,12.90
2019-05-10T10:51:32.361Z,12.35
2019-05-10T10:53:59.243Z,12.07
2019-05-10T10:56:28.318Z,12.05
2019-05-10T10:58:58.019Z,12.40
2019-05-10T11:01:38.000Z,15.68
2019-05-10T11:04:03.510Z,12.30
2019-05-10T11:06:28.983Z,11.45
2019-05-10T11:08:58.025Z,9.55
2019-05-10T11:11:30.702Z,9.50
2019-05-10T11:14:04.197Z,8.30
2019-05-10T11:16:28.699Z,8.03
2019-05-10T11:18:57.803Z,8.65
2019-05-10T11:21:28.767Z,7.53
2019-05-10T11:23:57.699Z,8.45
2019-05-10T11:26:34.952Z,6.33
2019-05-10T11:28:57.785Z,3.75
2019-05-10T11:31:26.872Z,3.37
2019-05-10T11:33:58.498Z,3.65
2019-05-10T11:36:26.994Z,4.53
2019-05-10T11:38:58.499Z,7.72
2019-05-10T11:41:27.018Z,5.83
2019-05-10T11:43:57.904Z,6.37
2019-05-10T11:46:28.038Z,5.97
2019-05-10T11:48:57.369Z,5.65
2019-05-10T11:51:26.527Z,5.45
2019-05-10T11:53:59.667Z,6.75
2019-05-10T11:58:57.342Z,7.20
2019-05-10T11:59:04.752Z,7.25
2019-05-10T12:01:26.478Z,6.42
2019-05-10T12:03:55.570Z,6.58
2019-05-10T12:06:24.749Z,6.42
2019-05-10T12:09:00.843Z,7.20
2019-05-10T12:11:32.896Z,7.10
2019-05-10T12:13:57.424Z,7.22
2019-05-10T12:16:26.631Z,7.45
2019-05-10T12:21:27.061Z,9.13
2019-05-10T12:23:56.859Z,6.72
2019-05-10T12:26:58.550Z,10.38
2019-05-10T12:29:02.741Z,5.50
2019-05-10T12:31:27.717Z,5.25
2019-05-10T12:34:01.739Z,5.70
2019-05-10T12:36:27.838Z,5.90
2019-05-10T12:38:58.945Z,5.97
2019-05-10T12:41:27.798Z,5.45
2019-05-10T12:44:02.868Z,5.08
2019-05-10T12:46:27.777Z,5.53
2019-05-10T12:48:56.879Z,4.28
2019-05-10T12:51:26.049Z,4.17
2019-05-10T12:53:55.475Z,4.53
2019-05-10T12:56:27.690Z,3.35
2019-05-10T12:58:59.415Z,3.67
2019-05-10T13:01:31.910Z,3.02
2019-05-10T13:04:01.795Z,3.58
2019-05-10T13:06:29.454Z,2.77
2019-05-10T13:08:58.586Z,2.27
2019-05-10T13:11:27.714Z,2.37
2019-05-10T13:14:01.142Z,3.45
2019-05-10T13:16:27.710Z,2.22
2019-05-10T13:18:56.811Z,3.10
2019-05-10T13:21:25.948Z,2.52
2019-05-10T13:23:55.335Z,2.75
2019-05-10T13:26:24.529Z,2.20
2019-05-10T13:28:53.642Z,1.92
2019-05-10T13:31:22.718Z,2.65
2019-05-10T13:33:51.811Z,3.20
2019-05-10T13:36:20.874Z,3.52
2019-05-10T13:38:50.059Z,3.00
2019-05-10T13:41:24.344Z,3.90
2019-05-10T13:43:49.990Z,4.12
2019-05-10T13:46:19.268Z,4.47
2019-05-10T13:48:48.417Z,4.60
2019-05-10T13:51:17.587Z,4.17
2019-05-10T13:53:46.695Z,4.80
2019-05-10T13:56:15.795Z,5.22
2019-05-10T13:58:44.867Z,5.62
2019-05-10T14:01:14.862Z,4.97
2019-05-10T14:03:48.346Z,5.08
2019-05-10T14:06:15.033Z,5.22
2019-05-10T14:08:48.155Z,5.20
2019-05-10T14:11:14.962Z,4.90
2019-05-10T14:13:44.041Z,5.92
2019-05-10T14:16:18.234Z,5.55
2019-05-10T14:18:44.046Z,5.60
2019-05-10T14:21:13.139Z,5.30
2019-05-10T14:23:42.250Z,5.90
2019-05-10T14:26:15.992Z,5.53
2019-05-10T14:28:42.206Z,5.70
2019-05-10T14:31:11.378Z,5.67
2019-05-10T14:33:40.501Z,6.37
2019-05-10T14:36:09.631Z,6.03
2019-05-10T14:38:38.718Z,6.13
2019-05-10T14:41:10.730Z,5.73
2019-05-10T14:43:38.783Z,5.85
2019-05-10T14:46:13.552Z,5.90
2019-05-10T14:48:38.699Z,6.28
2019-05-10T14:51:10.852Z,6.45
2019-05-10T14:53:38.671Z,8.23
2019-05-10T14:56:14.027Z,6.53
2019-05-10T14:58:38.817Z,4.40
2019-05-10T15:01:08.327Z,5.42
2019-05-10T15:03:45.444Z,4.00
2019-05-10T15:06:08.238Z,4.87
2019-05-10T15:08:37.318Z,5.53
2019-05-10T15:11:06.390Z,4.70
2019-05-10T15:13:35.596Z,4.10
2019-05-10T15:16:08.248Z,3.87
2019-05-10T15:18:35.661Z,3.52
2019-05-10T15:21:04.915Z,3.67
2019-05-10T15:23:34.344Z,3.30
2019-05-10T15:26:10.818Z,3.10
2019-05-10T15:28:40.215Z,3.25
2019-05-10T15:31:05.394Z,3.10
2019-05-10T15:33:34.785Z,3.50
2019-05-10T15:36:03.979Z,2.70
2019-05-10T15:38:33.278Z,2.60
2019-05-10T15:41:02.366Z,2.62
2019-05-10T15:43:31.431Z,2.52
2019-05-10T15:46:00.621Z,2.50
2019-05-10T15:48:29.733Z,1.70
2019-05-10T15:50:58.875Z,1.62
2019-05-10T15:53:27.959Z,1.97
2019-05-10T15:55:59.004Z,2.05
2019-05-10T15:58:30.711Z,1.50
2019-05-10T16:00:58.634Z,1.70
2019-05-10T16:03:27.784Z,1.80
2019-05-10T16:06:00.801Z,1.77
2019-05-10T16:08:30.365Z,1.60
2019-05-10T16:10:58.545Z,1.50
2019-05-10T16:13:27.653Z,1.95
2019-05-10T16:15:57.633Z,1.67
2019-05-10T16:18:27.605Z,2.00
2019-05-10T16:20:57.079Z,1.98
2019-05-10T16:23:26.135Z,2.10
2019-05-10T16:25:55.557Z,2.50
2019-05-10T16:28:24.677Z,2.30
2019-05-10T16:30:53.823Z,2.33
2019-05-10T16:33:22.962Z,2.35
2019-05-10T16:35:52.174Z,2.20
2019-05-10T16:38:21.456Z,2.30
2019-05-10T16:40:58.275Z,2.17
2019-05-10T16:43:24.580Z,2.40
2019-05-10T16:45:52.320Z,2.30
2019-05-10T16:48:21.799Z,2.10
2019-05-10T16:50:50.950Z,1.80
2019-05-10T16:53:20.131Z,1.82
2019-05-10T16:55:49.298Z,2.03
2019-05-10T16:58:21.891Z,1.65
2019-05-10T17:00:49.277Z,2.00
2019-05-10T17:03:20.466Z,1.90
2019-05-10T17:05:53.412Z,1.70
2019-05-10T17:08:20.327Z,1.50
2019-05-10T17:10:49.729Z,1.60
2019-05-10T17:13:19.261Z,1.50
2019-05-10T17:15:48.462Z,1.80
2019-05-10T17:18:19.846Z,2.05
2019-05-10T17:20:50.973Z,1.70
2019-05-10T17:23:19.241Z,1.75
2019-05-10T17:25:48.403Z,1.72
2019-05-10T17:28:17.574Z,1.83
2019-05-10T17:30:46.677Z,1.75
2019-05-10T17:33:15.916Z,1.80
2019-05-10T17:35:44.973Z,2.00
2019-05-10T17:38:16.125Z,1.60
2019-05-10T17:40:47.970Z,1.70
2019-05-10T17:43:20.783Z,1.80
2019-05-10T17:45:46.802Z,1.90
2019-05-10T17:48:15.913Z,1.80
2019-05-10T17:50:45.785Z,1.72
2019-05-10T17:53:15.111Z,1.90
2019-05-10T17:55:49.501Z,1.87
2019-05-10T17:58:17.199Z,1.93
2019-05-10T18:00:46.239Z,1.77
2019-05-10T18:03:15.648Z,1.70
2019-05-10T18:05:46.609Z,1.87
2019-05-10T18:08:16.018Z,1.92
2019-05-10T18:10:45.284Z,1.92
2019-05-10T18:13:14.509Z,2.60
2019-05-10T18:15:43.765Z,2.30
2019-05-10T18:18:12.862Z,1.90
2019-05-10T18:20:44.316Z,1.87
2019-05-10T18:23:20.380Z,1.70
2019-05-10T18:25:43.763Z,3.00
2019-05-10T18:28:16.580Z,2.30
2019-05-10T18:30:43.806Z,1.87
2019-05-10T18:33:14.092Z,2.00
2019-05-10T18:35:47.563Z,2.10
2019-05-10T18:38:16.158Z,4.70
2019-05-10T18:40:45.371Z,2.00
2019-05-10T18:43:14.780Z,1.98
2019-05-10T18:45:44.090Z,1.95
2019-05-10T18:48:13.539Z,2.58
2019-05-10T18:50:45.119Z,2.20
2019-05-10T18:53:14.102Z,2.00
2019-05-10T18:55:43.303Z,2.60
2019-05-10T18:58:12.753Z,2.20
2019-05-10T19:00:41.871Z,2.40
2019-05-10T19:03:11.923Z,7.72
2019-05-10T19:05:41.464Z,2.92
2019-05-10T19:08:10.785Z,2.15
2019-05-10T19:10:40.266Z,2.75
2019-05-10T19:13:10.129Z,2.40
2019-05-10T19:15:40.499Z,2.30
2019-05-10T19:18:09.811Z,3.77
2019-05-10T19:20:39.292Z,2.60
2019-05-10T19:23:13.076Z,2.40
2019-05-10T19:25:39.543Z,4.47
2019-05-10T19:28:08.808Z,2.90
2019-05-10T19:30:38.579Z,2.85
2019-05-10T19:33:07.765Z,2.73
2019-05-10T19:35:37.950Z,2.62
2019-05-10T19:38:07.337Z,2.98
2019-05-10T19:40:38.392Z,3.10
2019-05-10T19:43:07.510Z,2.90
2019-05-10T19:45:36.854Z,2.85
2019-05-10T19:48:06.209Z,2.70
2019-05-10T19:50:35.314Z,5.40
2019-05-10T19:53:05.595Z,3.27
2019-05-10T19:55:34.902Z,4.62
2019-05-10T19:58:04.062Z,4.43
2019-05-10T20:00:33.283Z,2.90
2019-05-10T20:03:02.671Z,2.98
2019-05-10T20:05:31.886Z,3.27
2019-05-10T20:08:01.727Z,4.80
2019-05-10T20:10:31.010Z,3.25
2019-05-10T20:13:00.233Z,3.10
2019-05-10T20:15:29.779Z,3.10
2019-05-10T20:17:59.221Z,3.10
2019-05-10T20:20:29.073Z,3.60
2019-05-10T20:22:58.597Z,3.35
2019-05-10T20:25:28.115Z,4.35
2019-05-10T20:27:59.010Z,4.00
2019-05-10T20:30:30.769Z,3.40
2019-05-10T20:33:00.036Z,3.35
2019-05-10T20:35:29.822Z,3.55
2019-05-10T20:38:02.369Z,3.40
2019-05-10T20:40:30.908Z,3.70
2019-05-10T20:43:00.237Z,3.70
2019-05-10T20:45:29.679Z,3.50
2019-05-10T20:47:59.134Z,3.80
2019-05-10T20:50:28.335Z,34.18
2019-05-10T20:52:58.059Z,3.83
2019-05-10T20:55:27.396Z,3.60
2019-05-10T20:57:58.702Z,3.60
2019-05-10T21:00:29.159Z,3.40
2019-05-10T21:02:58.661Z,3.02
2019-05-10T21:05:28.172Z,3.58
2019-05-10T21:07:58.202Z,3.40
2019-05-10T21:10:27.342Z,3.50
2019-05-10T21:12:56.530Z,4.10
2019-05-10T21:15:26.211Z,3.50
2019-05-10T21:17:55.488Z,3.20
2019-05-10T21:20:24.724Z,3.67
2019-05-10T21:22:55.131Z,3.60
2019-05-10T21:25:25.273Z,3.47
2019-05-10T21:27:54.893Z,3.57
2019-05-10T21:30:24.086Z,3.30
2019-05-10T21:32:53.663Z,3.67
2019-05-10T21:35:25.387Z,3.50
2019-05-10T21:37:54.764Z,3.52
2019-05-10T21:40:24.355Z,3.75
2019-05-10T21:42:53.579Z,3.40
2019-05-10T21:45:22.693Z,4.00
2019-05-10T21:47:52.195Z,3.57
2019-05-10T21:50:21.278Z,3.50
2019-05-10T21:52:50.452Z,3.55
2019-05-10T21:55:19.532Z,3.70
2019-05-10T21:57:48.744Z,3.42
2019-05-10T22:00:23.838Z,3.80
2019-05-10T22:02:53.029Z,4.37
2019-05-10T22:05:22.146Z,3.80
2019-05-10T22:07:51.247Z,3.87
2019-05-10T22:10:20.488Z,3.50
2019-05-10T22:12:49.665Z,3.55
2019-05-10T22:15:18.845Z,3.73
2019-05-10T22:17:48.030Z,3.70
2019-05-10T22:20:17.122Z,4.05
2019-05-10T22:22:46.510Z,4.08
2019-05-10T22:25:15.640Z,3.60
2019-05-10T22:27:44.772Z,3.30
2019-05-10T22:30:14.414Z,3.30
2019-05-10T22:32:43.497Z,3.50
2019-05-10T22:35:12.753Z,3.90
2019-05-10T22:37:41.801Z,3.73
2019-05-10T22:40:11.079Z,3.95
2019-05-10T22:42:40.148Z,4.20
2019-05-10T22:45:09.348Z,4.62
2019-05-10T22:47:38.453Z,4.20
2019-05-10T22:50:08.254Z,4.00
2019-05-10T22:52:37.601Z,4.87
2019-05-10T22:55:06.890Z,4.70
2019-05-10T22:57:35.969Z,4.60
2019-05-10T23:00:05.561Z,4.30
2019-05-10T23:02:34.665Z,4.40
2019-05-10T23:05:04.249Z,4.67
2019-05-10T23:07:33.402Z,4.83
2019-05-10T23:10:02.482Z,5.60
2019-05-10T23:12:31.618Z,4.92
2019-05-10T23:15:00.708Z,4.65
2019-05-10T23:17:32.582Z,4.83
2019-05-10T23:20:02.059Z,4.50
2019-05-10T23:22:31.109Z,4.33
2019-05-10T23:25:00.294Z,4.60
2019-05-10T23:27:29.953Z,4.90
2019-05-10T23:29:59.070Z,4.80
2019-05-10T23:32:28.141Z,4.90
2019-05-10T23:34:57.236Z,4.58
2019-05-10T23:37:26.300Z,4.80
2019-05-10T23:39:55.383Z,4.80
2019-05-10T23:42:24.574Z,5.20
2019-05-10T23:44:53.657Z,5.55
2019-05-10T23:47:22.717Z,5.35
2019-05-10T23:49:51.781Z,5.10
2019-05-10T23:52:24.485Z,5.40
2019-05-10T23:54:53.537Z,5.30
2019-05-10T23:57:22.881Z,5.50
2019-05-10T23:59:51.936Z,5.17
